sensor_id;sensor_type;location;lat;lon;timestamp;pressure;altitude;pressure_sealevel;temperature;humidity
4576;BME280;2300;51.874;8.430;2023-04-26T00:02:23;100911.66;;;2.08;87.99
4576;BME280;2300;51.874;8.430;2023-04-26T00:04:53;100940.09;;;2.20;88.22
4576;BME280;2300;51.874;8.430;2023-04-26T00:07:20;100935.91;;;2.18;88.13
4576;BME280;2300;51.874;8.430;2023-04-26T00:09:47;100936.56;;;2.20;88.28
4576;BME280;2300;51.874;8.430;2023-04-26T00:12:14;100934.84;;;2.19;88.34
4576;BME280;2300;51.874;8.430;2023-04-26T00:14:40;100944.03;;;2.18;88.12
4576;BME280;2300;51.874;8.430;2023-04-26T00:17:07;100931.31;;;2.10;88.52
4576;BME280;2300;51.874;8.430;2023-04-26T00:19:33;100935.22;;;2.16;88.12
4576;BME280;2300;51.874;8.430;2023-04-26T00:22:01;100945.88;;;2.09;88.77
4576;BME280;2300;51.874;8.430;2023-04-26T00:24:29;100913.91;;;1.97;88.62
4576;BME280;2300;51.874;8.430;2023-04-26T00:26:56;100922.88;;;2.05;88.41
4576;BME280;2300;51.874;8.430;2023-04-26T00:29:22;100922.38;;;2.02;88.47
4576;BME280;2300;51.874;8.430;2023-04-26T00:31:49;100946.03;;;2.08;88.75
4576;BME280;2300;51.874;8.430;2023-04-26T00:34:15;100929.81;;;2.00;88.34
4576;BME280;2300;51.874;8.430;2023-04-26T00:36:42;100939.47;;;2.02;88.32
4576;BME280;2300;51.874;8.430;2023-04-26T00:39:10;100947.75;;;2.01;88.87
4576;BME280;2300;51.874;8.430;2023-04-26T00:41:37;100945.22;;;1.99;88.69
4576;BME280;2300;51.874;8.430;2023-04-26T00:44:03;100933.03;;;1.95;88.58
4576;BME280;2300;51.874;8.430;2023-04-26T00:46:30;100941.66;;;1.99;88.47
4576;BME280;2300;51.874;8.430;2023-04-26T00:48:57;100932.69;;;1.90;88.65
4576;BME280;2300;51.874;8.430;2023-04-26T00:51:25;100941.31;;;1.93;88.77
4576;BME280;2300;51.874;8.430;2023-04-26T00:53:52;100938.28;;;1.88;88.76
4576;BME280;2300;51.874;8.430;2023-04-26T00:56:21;100936.59;;;1.87;89.07
4576;BME280;2300;51.874;8.430;2023-04-26T00:58:49;100933.53;;;1.82;88.62
4576;BME280;2300;51.874;8.430;2023-04-26T01:01:16;100932.72;;;1.74;88.76
4576;BME280;2300;51.874;8.430;2023-04-26T01:03:42;100916.63;;;1.56;89.63
4576;BME280;2300;51.874;8.430;2023-04-26T01:06:10;100929.50;;;1.70;89.67
4576;BME280;2300;51.874;8.430;2023-04-26T01:08:37;100932.38;;;1.69;89.43
4576;BME280;2300;51.874;8.430;2023-04-26T01:11:04;100934.38;;;1.67;89.46
4576;BME280;2300;51.874;8.430;2023-04-26T01:13:32;100936.06;;;1.52;89.13
4576;BME280;2300;51.874;8.430;2023-04-26T01:16:00;100938.28;;;1.56;89.37
4576;BME280;2300;51.874;8.430;2023-04-26T01:18:27;100932.03;;;1.56;89.15
4576;BME280;2300;51.874;8.430;2023-04-26T01:20:53;100941.66;;;1.58;89.28
4576;BME280;2300;51.874;8.430;2023-04-26T01:23:22;100896.81;;;1.31;89.20
4576;BME280;2300;51.874;8.430;2023-04-26T01:25:48;100940.81;;;1.58;89.15
4576;BME280;2300;51.874;8.430;2023-04-26T01:28:15;100944.38;;;1.50;89.16
4576;BME280;2300;51.874;8.430;2023-04-26T01:30:48;100949.75;;;1.42;89.24
4576;BME280;2300;51.874;8.430;2023-04-26T01:33:15;100944.16;;;1.35;89.74
4576;BME280;2300;51.874;8.430;2023-04-26T01:35:41;100940.97;;;1.32;89.60
4576;BME280;2300;51.874;8.430;2023-04-26T01:38:08;100907.59;;;1.07;90.01
4576;BME280;2300;51.874;8.430;2023-04-26T01:40:36;100944.66;;;1.23;90.17
4576;BME280;2300;51.874;8.430;2023-04-26T01:43:02;100944.97;;;1.20;90.60
4576;BME280;2300;51.874;8.430;2023-04-26T01:45:29;100941.63;;;1.18;90.31
4576;BME280;2300;51.874;8.430;2023-04-26T01:47:55;100947.19;;;1.16;90.75
4576;BME280;2300;51.874;8.430;2023-04-26T01:50:22;100912.50;;;1.03;90.59
4576;BME280;2300;51.874;8.430;2023-04-26T01:52:48;100944.31;;;1.18;90.68
4576;BME280;2300;51.874;8.430;2023-04-26T01:55:15;100950.03;;;1.15;90.65
4576;BME280;2300;51.874;8.430;2023-04-26T01:57:43;100940.25;;;1.14;91.06
4576;BME280;2300;51.874;8.430;2023-04-26T02:00:10;100949.69;;;1.01;90.90
4576;BME280;2300;51.874;8.430;2023-04-26T02:02:37;100945.63;;;1.05;90.80
4576;BME280;2300;51.874;8.430;2023-04-26T02:05:04;100944.97;;;1.03;90.73
4576;BME280;2300;51.874;8.430;2023-04-26T02:07:30;100946.44;;;0.90;90.47
4576;BME280;2300;51.874;8.430;2023-04-26T02:09:57;100951.34;;;0.94;90.67
4576;BME280;2300;51.874;8.430;2023-04-26T02:12:23;100952.53;;;1.00;90.23
4576;BME280;2300;51.874;8.430;2023-04-26T02:14:51;100947.78;;;0.94;90.85
4576;BME280;2300;51.874;8.430;2023-04-26T02:17:17;100945.06;;;0.94;90.84
4576;BME280;2300;51.874;8.430;2023-04-26T02:19:45;100946.97;;;0.93;91.33
4576;BME280;2300;51.874;8.430;2023-04-26T02:22:12;100957.44;;;0.96;91.26
4576;BME280;2300;51.874;8.430;2023-04-26T02:24:38;100956.59;;;0.96;91.60
4576;BME280;2300;51.874;8.430;2023-04-26T02:27:05;100953.03;;;0.95;91.61
4576;BME280;2300;51.874;8.430;2023-04-26T02:29:31;100947.78;;;0.94;91.32
4576;BME280;2300;51.874;8.430;2023-04-26T02:31:59;100951.34;;;0.94;90.94
4576;BME280;2300;51.874;8.430;2023-04-26T02:34:26;100895.75;;;0.50;91.24
4576;BME280;2300;51.874;8.430;2023-04-26T02:36:52;100951.97;;;0.80;91.53
4576;BME280;2300;51.874;8.430;2023-04-26T02:39:19;100945.19;;;0.76;91.15
4576;BME280;2300;51.874;8.430;2023-04-26T02:41:45;100954.31;;;0.75;91.37
4576;BME280;2300;51.874;8.430;2023-04-26T02:44:11;100953.09;;;0.61;91.28
4576;BME280;2300;51.874;8.430;2023-04-26T02:46:38;100950.88;;;0.57;91.77
4576;BME280;2300;51.874;8.430;2023-04-26T02:49:06;100956.59;;;0.54;91.98
4576;BME280;2300;51.874;8.430;2023-04-26T02:51:32;100956.72;;;0.52;91.43
4576;BME280;2300;51.874;8.430;2023-04-26T02:53:59;100966.03;;;0.50;91.50
4576;BME280;2300;51.874;8.430;2023-04-26T02:56:25;100961.91;;;0.38;91.60
4576;BME280;2300;51.874;8.430;2023-04-26T02:58:52;100957.13;;;0.32;91.73
4576;BME280;2300;51.874;8.430;2023-04-26T03:01:18;100959.03;;;0.13;92.24
4576;BME280;2300;51.874;8.430;2023-04-26T03:03:45;100945.44;;;0.23;92.22
4576;BME280;2300;51.874;8.430;2023-04-26T03:06:13;100952.38;;;0.26;92.10
4576;BME280;2300;51.874;8.430;2023-04-26T03:08:39;100905.88;;;-0.12;92.06
4576;BME280;2300;51.874;8.430;2023-04-26T03:11:05;100959.75;;;0.15;92.83
4576;BME280;2300;51.874;8.430;2023-04-26T03:13:32;100964.44;;;0.13;92.83
4576;BME280;2300;51.874;8.430;2023-04-26T03:15:58;100957.69;;;0.09;92.62
4576;BME280;2300;51.874;8.430;2023-04-26T03:18:25;100955.00;;;0.17;92.50
4576;BME280;2300;51.874;8.430;2023-04-26T03:20:51;100966.41;;;0.03;92.94
4576;BME280;2300;51.874;8.430;2023-04-26T03:23:19;100937.66;;;-0.06;93.61
4576;BME280;2300;51.874;8.430;2023-04-26T03:25:48;100964.31;;;-0.03;94.60
4576;BME280;2300;51.874;8.430;2023-04-26T03:28:15;100957.09;;;-0.02;94.67
4576;BME280;2300;51.874;8.430;2023-04-26T03:30:41;100948.47;;;-0.06;94.62
4576;BME280;2300;51.874;8.430;2023-04-26T03:33:08;100962.94;;;-0.07;94.87
4576;BME280;2300;51.874;8.430;2023-04-26T03:35:34;100960.25;;;-0.07;95.08
4576;BME280;2300;51.874;8.430;2023-04-26T03:38:01;100955.22;;;-0.02;95.54
4576;BME280;2300;51.874;8.430;2023-04-26T03:40:29;100937.44;;;-0.12;95.26
4576;BME280;2300;51.874;8.430;2023-04-26T03:42:55;100953.53;;;-0.03;94.65
4576;BME280;2300;51.874;8.430;2023-04-26T03:45:21;100952.69;;;-0.03;95.24
4576;BME280;2300;51.874;8.430;2023-04-26T03:47:49;100932.81;;;-0.20;94.96
4576;BME280;2300;51.874;8.430;2023-04-26T03:50:15;100956.47;;;-0.14;94.37
4576;BME280;2300;51.874;8.430;2023-04-26T03:52:42;100953.41;;;-0.19;94.08
4576;BME280;2300;51.874;8.430;2023-04-26T03:55:10;100949.06;;;-0.12;94.08
4576;BME280;2300;51.874;8.430;2023-04-26T03:57:38;100915.47;;;-0.35;94.15
4576;BME280;2300;51.874;8.430;2023-04-26T04:00:06;100949.94;;;-0.11;93.76
4576;BME280;2300;51.874;8.430;2023-04-26T04:02:34;100934.00;;;-0.40;93.86
4576;BME280;2300;51.874;8.430;2023-04-26T04:05:00;100954.88;;;-0.25;93.93
4576;BME280;2300;51.874;8.430;2023-04-26T04:07:27;100948.09;;;-0.29;93.81
4576;BME280;2300;51.874;8.430;2023-04-26T04:09:53;100953.41;;;-0.19;93.48
4576;BME280;2300;51.874;8.430;2023-04-26T04:12:20;100947.31;;;-0.21;93.11
4576;BME280;2300;51.874;8.430;2023-04-26T04:14:48;100954.03;;;-0.25;92.92
4576;BME280;2300;51.874;8.430;2023-04-26T04:17:15;100950.03;;;-0.21;92.61
4576;BME280;2300;51.874;8.430;2023-04-26T04:19:41;100949.94;;;-0.29;92.56
4576;BME280;2300;51.874;8.430;2023-04-26T04:22:08;100952.41;;;-0.18;92.78
4576;BME280;2300;51.874;8.430;2023-04-26T04:24:34;100923.53;;;-0.43;93.37
4576;BME280;2300;51.874;8.430;2023-04-26T04:27:01;100959.66;;;-0.18;93.53
4576;BME280;2300;51.874;8.430;2023-04-26T04:29:27;100955.88;;;-0.26;93.56
4576;BME280;2300;51.874;8.430;2023-04-26T04:31:55;100969.50;;;-0.09;93.79
4576;BME280;2300;51.874;8.430;2023-04-26T04:34:22;100968.22;;;-0.05;93.84
4576;BME280;2300;51.874;8.430;2023-04-26T04:36:49;100972.09;;;0.00;93.78
4576;BME280;2300;51.874;8.430;2023-04-26T04:39:15;100959.06;;;-0.04;93.75
4576;BME280;2300;51.874;8.430;2023-04-26T04:41:42;100969.53;;;0.16;93.49
4576;BME280;2300;51.874;8.430;2023-04-26T04:44:12;100978.47;;;0.17;93.26
4576;BME280;2300;51.874;8.430;2023-04-26T04:46:39;100970.13;;;0.28;93.50
4576;BME280;2300;51.874;8.430;2023-04-26T04:49:07;100971.97;;;0.28;94.20
4576;BME280;2300;51.874;8.430;2023-04-26T04:51:35;100959.16;;;0.30;93.49
4576;BME280;2300;51.874;8.430;2023-04-26T04:54:08;100923.13;;;-0.05;94.10
4576;BME280;2300;51.874;8.430;2023-04-26T04:56:35;100982.28;;;0.58;94.41
4576;BME280;2300;51.874;8.430;2023-04-26T04:59:01;100962.22;;;0.35;94.28
4576;BME280;2300;51.874;8.430;2023-04-26T05:01:29;100957.28;;;0.56;95.06
4576;BME280;2300;51.874;8.430;2023-04-26T05:03:56;100994.66;;;1.02;94.28
4576;BME280;2300;51.874;8.430;2023-04-26T05:06:25;100969.47;;;1.02;93.29
4576;BME280;2300;51.874;8.430;2023-04-26T05:08:52;100994.94;;;1.41;93.53
4576;BME280;2300;51.874;8.430;2023-04-26T05:11:18;100995.13;;;3.00;94.79
4576;BME280;2300;51.874;8.430;2023-04-26T05:13:45;100980.66;;;5.32;89.01
4576;BME280;2300;51.874;8.430;2023-04-26T05:16:12;100983.56;;;7.47;82.87
4576;BME280;2300;51.874;8.430;2023-04-26T05:18:38;100919.19;;;8.96;74.94
4576;BME280;2300;51.874;8.430;2023-04-26T05:21:05;100979.41;;;10.72;68.68
4576;BME280;2300;51.874;8.430;2023-04-26T05:23:33;100980.91;;;11.30;62.79
4576;BME280;2300;51.874;8.430;2023-04-26T05:26:00;100984.22;;;12.09;61.54
4576;BME280;2300;51.874;8.430;2023-04-26T05:28:27;100998.22;;;12.84;58.31
4576;BME280;2300;51.874;8.430;2023-04-26T05:30:53;100985.09;;;13.38;55.97
4576;BME280;2300;51.874;8.430;2023-04-26T05:33:19;100992.91;;;13.98;53.58
4576;BME280;2300;51.874;8.430;2023-04-26T05:35:47;100996.31;;;14.16;51.82
4576;BME280;2300;51.874;8.430;2023-04-26T05:38:13;100999.56;;;13.85;51.71
4576;BME280;2300;51.874;8.430;2023-04-26T05:40:42;101006.63;;;13.93;52.28
4576;BME280;2300;51.874;8.430;2023-04-26T05:43:08;101004.38;;;14.51;51.75
4576;BME280;2300;51.874;8.430;2023-04-26T05:45:34;101005.00;;;15.69;49.95
4576;BME280;2300;51.874;8.430;2023-04-26T05:48:01;101019.03;;;15.40;49.30
4576;BME280;2300;51.874;8.430;2023-04-26T05:50:27;101013.09;;;15.10;50.38
4576;BME280;2300;51.874;8.430;2023-04-26T05:52:54;101019.69;;;15.47;51.43
4576;BME280;2300;51.874;8.430;2023-04-26T05:55:20;101017.19;;;17.17;48.81
4576;BME280;2300;51.874;8.430;2023-04-26T05:57:48;101013.34;;;16.22;48.04
4576;BME280;2300;51.874;8.430;2023-04-26T06:00:15;101020.91;;;16.96;48.40
4576;BME280;2300;51.874;8.430;2023-04-26T06:02:44;101009.50;;;15.75;47.92
4576;BME280;2300;51.874;8.430;2023-04-26T06:05:11;101022.66;;;16.38;49.10
4576;BME280;2300;51.874;8.430;2023-04-26T06:07:37;100962.13;;;15.98;47.46
4576;BME280;2300;51.874;8.430;2023-04-26T06:10:04;101004.88;;;16.66;46.95
4576;BME280;2300;51.874;8.430;2023-04-26T06:12:31;101026.31;;;16.75;46.85
4576;BME280;2300;51.874;8.430;2023-04-26T06:14:59;101018.88;;;16.81;47.35
4576;BME280;2300;51.874;8.430;2023-04-26T06:17:26;101037.00;;;17.31;47.11
4576;BME280;2300;51.874;8.430;2023-04-26T06:19:52;101037.25;;;17.86;44.21
4576;BME280;2300;51.874;8.430;2023-04-26T06:22:19;101027.88;;;13.92;51.34
4576;BME280;2300;51.874;8.430;2023-04-26T06:24:45;101028.72;;;13.93;51.79
4576;BME280;2300;51.874;8.430;2023-04-26T06:27:12;101026.44;;;12.45;53.28
4576;BME280;2300;51.874;8.430;2023-04-26T06:29:38;101029.38;;;11.24;57.04
4576;BME280;2300;51.874;8.430;2023-04-26T06:32:07;101032.69;;;12.52;56.31
4576;BME280;2300;51.874;8.430;2023-04-26T06:34:33;101036.81;;;14.56;52.40
4576;BME280;2300;51.874;8.430;2023-04-26T06:37:01;101008.91;;;14.91;50.87
4576;BME280;2300;51.874;8.430;2023-04-26T06:39:27;101021.28;;;14.88;50.71
4576;BME280;2300;51.874;8.430;2023-04-26T06:41:54;101036.06;;;15.98;50.72
4576;BME280;2300;51.874;8.430;2023-04-26T06:44:21;101029.38;;;15.50;50.28
4576;BME280;2300;51.874;8.430;2023-04-26T06:46:47;101029.66;;;13.58;53.45
4576;BME280;2300;51.874;8.430;2023-04-26T06:49:15;101017.63;;;12.66;55.68
4576;BME280;2300;51.874;8.430;2023-04-26T06:51:41;101031.13;;;11.37;58.61
4576;BME280;2300;51.874;8.430;2023-04-26T06:54:10;101030.34;;;11.11;59.33
4576;BME280;2300;51.874;8.430;2023-04-26T06:56:37;101025.53;;;10.39;61.29
4576;BME280;2300;51.874;8.430;2023-04-26T06:59:05;101032.25;;;10.68;62.69
4576;BME280;2300;51.874;8.430;2023-04-26T07:01:32;101030.63;;;10.85;61.56
4576;BME280;2300;51.874;8.430;2023-04-26T07:04:00;101035.97;;;10.80;61.40
4576;BME280;2300;51.874;8.430;2023-04-26T07:06:29;101016.06;;;10.04;61.73
4576;BME280;2300;51.874;8.430;2023-04-26T07:08:57;101042.72;;;10.21;62.43
4576;BME280;2300;51.874;8.430;2023-04-26T07:11:23;100999.78;;;9.71;62.53
4576;BME280;2300;51.874;8.430;2023-04-26T07:13:50;101041.84;;;9.96;62.87
4576;BME280;2300;51.874;8.430;2023-04-26T07:16:17;101033.50;;;9.84;64.84
4576;BME280;2300;51.874;8.430;2023-04-26T07:18:43;101033.66;;;10.27;62.96
4576;BME280;2300;51.874;8.430;2023-04-26T07:21:12;101034.97;;;10.18;63.77
4576;BME280;2300;51.874;8.430;2023-04-26T07:23:40;101024.69;;;10.38;61.76
4576;BME280;2300;51.874;8.430;2023-04-26T07:26:09;101032.16;;;10.56;61.61
4576;BME280;2300;51.874;8.430;2023-04-26T07:28:35;101037.25;;;10.77;62.24
4576;BME280;2300;51.874;8.430;2023-04-26T07:31:02;101034.94;;;11.17;61.87
4576;BME280;2300;51.874;8.430;2023-04-26T07:33:29;101038.31;;;10.76;61.25
4576;BME280;2300;51.874;8.430;2023-04-26T07:35:56;101034.25;;;10.36;61.81
4576;BME280;2300;51.874;8.430;2023-04-26T07:38:24;101027.41;;;9.76;62.85
4576;BME280;2300;51.874;8.430;2023-04-26T07:40:52;101029.13;;;9.70;63.75
4576;BME280;2300;51.874;8.430;2023-04-26T07:43:19;101037.88;;;9.47;64.14
4576;BME280;2300;51.874;8.430;2023-04-26T07:45:46;101033.28;;;9.28;64.15
4576;BME280;2300;51.874;8.430;2023-04-26T07:48:12;101000.97;;;8.79;65.65
4576;BME280;2300;51.874;8.430;2023-04-26T07:50:39;101031.00;;;9.25;65.19
4576;BME280;2300;51.874;8.430;2023-04-26T07:53:05;101034.13;;;9.29;63.83
4576;BME280;2300;51.874;8.430;2023-04-26T07:55:32;101029.88;;;9.39;65.01
4576;BME280;2300;51.874;8.430;2023-04-26T07:58:02;101024.53;;;9.00;65.09
4576;BME280;2300;51.874;8.430;2023-04-26T08:00:28;100982.88;;;8.71;64.92
4576;BME280;2300;51.874;8.430;2023-04-26T08:02:55;101036.94;;;9.67;65.10
4576;BME280;2300;51.874;8.430;2023-04-26T08:05:21;101035.94;;;9.99;65.29
4576;BME280;2300;51.874;8.430;2023-04-26T08:07:48;101030.81;;;10.09;62.51
4576;BME280;2300;51.874;8.430;2023-04-26T08:10:14;101022.25;;;10.55;62.74
4576;BME280;2300;51.874;8.430;2023-04-26T08:12:41;101034.91;;;10.81;61.63
4576;BME280;2300;51.874;8.430;2023-04-26T08:15:10;101031.78;;;10.77;60.43
4576;BME280;2300;51.874;8.430;2023-04-26T08:17:37;101024.66;;;10.45;60.85
4576;BME280;2300;51.874;8.430;2023-04-26T08:20:04;101026.56;;;9.75;61.25
4576;BME280;2300;51.874;8.430;2023-04-26T08:22:31;101002.34;;;9.66;60.67
4576;BME280;2300;51.874;8.430;2023-04-26T08:24:57;101025.59;;;10.32;60.92
4576;BME280;2300;51.874;8.430;2023-04-26T08:27:24;101022.13;;;10.43;59.52
4576;BME280;2300;51.874;8.430;2023-04-26T08:29:52;101024.34;;;10.78;62.21
4576;BME280;2300;51.874;8.430;2023-04-26T08:32:20;101030.97;;;10.70;60.97
4576;BME280;2300;51.874;8.430;2023-04-26T08:34:47;101025.25;;;10.47;60.25
4576;BME280;2300;51.874;8.430;2023-04-26T08:37:13;101017.47;;;9.75;61.22
4576;BME280;2300;51.874;8.430;2023-04-26T08:39:40;101037.47;;;9.88;60.94
4576;BME280;2300;51.874;8.430;2023-04-26T08:42:12;101029.00;;;10.21;61.64
4576;BME280;2300;51.874;8.430;2023-04-26T08:44:41;101021.16;;;10.00;59.22
4576;BME280;2300;51.874;8.430;2023-04-26T08:47:13;101011.94;;;9.88;60.26
4576;BME280;2300;51.874;8.430;2023-04-26T08:49:43;101014.03;;;9.86;60.29
4576;BME280;2300;51.874;8.430;2023-04-26T08:52:13;101024.25;;;9.79;60.75
4576;BME280;2300;51.874;8.430;2023-04-26T08:54:41;101021.50;;;9.79;60.23
4576;BME280;2300;51.874;8.430;2023-04-26T08:57:08;101021.72;;;9.71;58.59
4576;BME280;2300;51.874;8.430;2023-04-26T08:59:36;101014.94;;;9.35;59.85
4576;BME280;2300;51.874;8.430;2023-04-26T09:02:04;101007.72;;;8.57;60.13
4576;BME280;2300;51.874;8.430;2023-04-26T09:04:31;101005.41;;;8.54;60.33
4576;BME280;2300;51.874;8.430;2023-04-26T09:06:59;101023.31;;;8.50;62.04
4576;BME280;2300;51.874;8.430;2023-04-26T09:09:27;101021.38;;;8.50;62.41
4576;BME280;2300;51.874;8.430;2023-04-26T09:11:55;101024.34;;;8.62;62.00
4576;BME280;2300;51.874;8.430;2023-04-26T09:14:22;101034.03;;;8.91;60.70
4576;BME280;2300;51.874;8.430;2023-04-26T09:16:49;101031.47;;;9.09;61.54
4576;BME280;2300;51.874;8.430;2023-04-26T09:19:16;101028.63;;;9.42;59.56
4576;BME280;2300;51.874;8.430;2023-04-26T09:21:44;101026.06;;;9.47;60.10
4576;BME280;2300;51.874;8.430;2023-04-26T09:24:12;101028.53;;;9.04;61.71
4576;BME280;2300;51.874;8.430;2023-04-26T09:26:39;101035.53;;;8.80;62.22
4576;BME280;2300;51.874;8.430;2023-04-26T09:29:13;101033.63;;;8.54;62.46
4576;BME280;2300;51.874;8.430;2023-04-26T09:31:42;101033.41;;;8.43;61.60
4576;BME280;2300;51.874;8.430;2023-04-26T09:34:09;101031.69;;;8.35;62.29
4576;BME280;2300;51.874;8.430;2023-04-26T09:36:46;101039.50;;;8.31;62.94
4576;BME280;2300;51.874;8.430;2023-04-26T09:39:14;101033.59;;;8.21;64.50
4576;BME280;2300;51.874;8.430;2023-04-26T09:41:54;101043.88;;;8.00;64.77
4576;BME280;2300;51.874;8.430;2023-04-26T09:44:21;101038.22;;;8.08;64.16
4576;BME280;2300;51.874;8.430;2023-04-26T09:47:01;101041.13;;;7.86;64.81
4576;BME280;2300;51.874;8.430;2023-04-26T09:49:30;101045.28;;;7.76;64.26
4576;BME280;2300;51.874;8.430;2023-04-26T09:52:04;101042.97;;;7.79;65.43
4576;BME280;2300;51.874;8.430;2023-04-26T09:54:40;101046.34;;;7.81;64.77
4576;BME280;2300;51.874;8.430;2023-04-26T09:57:07;101052.44;;;7.83;65.91
4576;BME280;2300;51.874;8.430;2023-04-26T09:59:41;101034.78;;;7.79;65.59
4576;BME280;2300;51.874;8.430;2023-04-26T10:02:17;101061.16;;;8.20;65.65
4576;BME280;2300;51.874;8.430;2023-04-26T10:04:46;101046.44;;;8.41;65.23
4576;BME280;2300;51.874;8.430;2023-04-26T10:07:13;101047.31;;;8.67;64.68
4576;BME280;2300;51.874;8.430;2023-04-26T10:09:42;101042.47;;;8.76;63.89
4576;BME280;2300;51.874;8.430;2023-04-26T10:12:09;101048.09;;;9.21;64.15
4576;BME280;2300;51.874;8.430;2023-04-26T10:14:36;101048.41;;;9.50;64.74
4576;BME280;2300;51.874;8.430;2023-04-26T10:17:03;101047.78;;;9.93;62.87
4576;BME280;2300;51.874;8.430;2023-04-26T10:19:32;101042.72;;;10.21;62.34
4576;BME280;2300;51.874;8.430;2023-04-26T10:22:04;101052.00;;;10.83;60.89
4576;BME280;2300;51.874;8.430;2023-04-26T10:24:31;101039.56;;;10.31;60.53
4576;BME280;2300;51.874;8.430;2023-04-26T10:26:58;101037.00;;;9.98;59.50
4576;BME280;2300;51.874;8.430;2023-04-26T10:30:05;101032.28;;;9.74;60.95
4576;BME280;2300;51.874;8.430;2023-04-26T10:36:06;101024.69;;;9.18;61.33
4576;BME280;2300;51.874;8.430;2023-04-26T10:38:34;101021.94;;;9.18;61.03
4576;BME280;2300;51.874;8.430;2023-04-26T10:41:26;101021.13;;;9.11;61.51
4576;BME280;2300;51.874;8.430;2023-04-26T10:43:54;101013.56;;;9.00;61.26
4576;BME280;2300;51.874;8.430;2023-04-26T10:46:34;101015.28;;;8.94;60.91
4576;BME280;2300;51.874;8.430;2023-04-26T10:49:12;101025.78;;;9.04;61.55
4576;BME280;2300;51.874;8.430;2023-04-26T10:52:07;101013.19;;;8.83;61.97
4576;BME280;2300;51.874;8.430;2023-04-26T10:54:47;101021.41;;;8.63;63.01
4576;BME280;2300;51.874;8.430;2023-04-26T10:57:14;101017.00;;;8.69;62.68
4576;BME280;2300;51.874;8.430;2023-04-26T11:00:15;101017.22;;;8.81;62.42
4576;BME280;2300;51.874;8.430;2023-04-26T11:02:46;101022.00;;;9.05;63.09
4576;BME280;2300;51.874;8.430;2023-04-26T11:08:26;101016.25;;;9.71;60.56
4576;BME280;2300;51.874;8.430;2023-04-26T11:11:04;101013.00;;;10.25;59.62
4576;BME280;2300;51.874;8.430;2023-04-26T11:13:34;101011.94;;;10.51;59.34
4576;BME280;2300;51.874;8.430;2023-04-26T11:16:03;101009.38;;;10.74;57.10
4576;BME280;2300;51.874;8.430;2023-04-26T11:18:31;101014.19;;;10.78;55.49
4576;BME280;2300;51.874;8.430;2023-04-26T11:20:58;101013.44;;;10.71;55.67
4576;BME280;2300;51.874;8.430;2023-04-26T11:23:27;101007.22;;;10.58;54.87
4576;BME280;2300;51.874;8.430;2023-04-26T11:25:56;101001.09;;;10.80;55.99
4576;BME280;2300;51.874;8.430;2023-04-26T11:28:23;101009.31;;;11.23;55.22
4576;BME280;2300;51.874;8.430;2023-04-26T11:30:50;101006.81;;;11.52;54.13
4576;BME280;2300;51.874;8.430;2023-04-26T11:33:17;101009.66;;;11.93;52.79
4576;BME280;2300;51.874;8.430;2023-04-26T11:35:46;101006.78;;;11.88;51.96
4576;BME280;2300;51.874;8.430;2023-04-26T11:38:13;101014.34;;;12.23;52.41
4576;BME280;2300;51.874;8.430;2023-04-26T11:40:41;101013.53;;;12.57;50.24
4576;BME280;2300;51.874;8.430;2023-04-26T11:43:08;101012.34;;;12.53;49.57
4576;BME280;2300;51.874;8.430;2023-04-26T11:45:36;101003.06;;;12.24;52.51
4576;BME280;2300;51.874;8.430;2023-04-26T11:48:05;101004.25;;;12.17;52.16
4576;BME280;2300;51.874;8.430;2023-04-26T11:50:33;101009.97;;;11.74;50.75
4576;BME280;2300;51.874;8.430;2023-04-26T11:53:03;100971.41;;;11.25;52.15
4576;BME280;2300;51.874;8.430;2023-04-26T11:55:31;100988.19;;;10.99;51.77
4576;BME280;2300;51.874;8.430;2023-04-26T11:57:59;101000.97;;;10.69;53.45
4576;BME280;2300;51.874;8.430;2023-04-26T12:00:27;100998.81;;;10.53;53.67
4576;BME280;2300;51.874;8.430;2023-04-26T12:02:54;100997.28;;;10.32;54.48
4576;BME280;2300;51.874;8.430;2023-04-26T12:05:23;101005.94;;;10.04;54.93
4576;BME280;2300;51.874;8.430;2023-04-26T12:07:51;100992.91;;;9.93;55.89
4576;BME280;2300;51.874;8.430;2023-04-26T12:10:21;101014.03;;;9.86;55.14
4576;BME280;2300;51.874;8.430;2023-04-26T12:12:49;101011.22;;;9.68;55.56
4576;BME280;2300;51.874;8.430;2023-04-26T12:15:18;101013.81;;;9.49;56.60
4576;BME280;2300;51.874;8.430;2023-04-26T12:17:51;101013.78;;;9.56;55.81
4576;BME280;2300;51.874;8.430;2023-04-26T12:20:18;101012.06;;;9.68;55.03
4576;BME280;2300;51.874;8.430;2023-04-26T12:23:02;101015.00;;;9.67;54.55
4576;BME280;2300;51.874;8.430;2023-04-26T12:25:29;101011.28;;;9.92;53.27
4576;BME280;2300;51.874;8.430;2023-04-26T12:27:56;101005.97;;;10.29;53.15
4576;BME280;2300;51.874;8.430;2023-04-26T12:30:26;101014.19;;;11.03;53.70
4576;BME280;2300;51.874;8.430;2023-04-26T12:32:54;101023.06;;;11.90;53.96
4576;BME280;2300;51.874;8.430;2023-04-26T12:35:22;101000.22;;;11.89;51.24
4576;BME280;2300;51.874;8.430;2023-04-26T12:37:49;101012.47;;;11.75;50.87
4576;BME280;2300;51.874;8.430;2023-04-26T12:40:17;101007.00;;;11.20;49.58
4576;BME280;2300;51.874;8.430;2023-04-26T12:42:46;101011.44;;;10.78;50.79
4576;BME280;2300;51.874;8.430;2023-04-26T12:45:13;101008.38;;;10.68;50.70
4576;BME280;2300;51.874;8.430;2023-04-26T12:47:41;101009.63;;;10.23;51.93
4576;BME280;2300;51.874;8.430;2023-04-26T12:50:08;101014.00;;;9.99;52.33
4576;BME280;2300;51.874;8.430;2023-04-26T12:52:37;101017.81;;;9.91;53.23
4576;BME280;2300;51.874;8.430;2023-04-26T12:55:04;101013.34;;;9.97;53.38
4576;BME280;2300;51.874;8.430;2023-04-26T12:57:31;101015.88;;;9.98;53.71
4576;BME280;2300;51.874;8.430;2023-04-26T13:00:08;101014.91;;;9.80;54.98
4576;BME280;2300;51.874;8.430;2023-04-26T13:02:35;101010.84;;;9.57;54.57
4576;BME280;2300;51.874;8.430;2023-04-26T13:05:04;101014.63;;;9.56;54.32
4576;BME280;2300;51.874;8.430;2023-04-26T13:07:32;101020.94;;;9.64;54.55
4576;BME280;2300;51.874;8.430;2023-04-26T13:09:59;101018.06;;;9.45;56.90
4576;BME280;2300;51.874;8.430;2023-04-26T13:12:26;101017.56;;;9.62;56.08
4576;BME280;2300;51.874;8.430;2023-04-26T13:14:52;101015.78;;;9.36;55.98
4576;BME280;2300;51.874;8.430;2023-04-26T13:17:19;101014.78;;;9.68;57.12
4576;BME280;2300;51.874;8.430;2023-04-26T13:19:46;101013.78;;;9.63;57.39
4576;BME280;2300;51.874;8.430;2023-04-26T13:22:14;101010.78;;;9.64;56.32
4576;BME280;2300;51.874;8.430;2023-04-26T13:24:41;101019.28;;;9.56;56.89
4576;BME280;2300;51.874;8.430;2023-04-26T13:27:07;101012.94;;;9.62;56.70
4576;BME280;2300;51.874;8.430;2023-04-26T13:29:34;101009.53;;;9.67;57.34